Time;durP1;ratioP1;P1;durP2;ratioP2;P2;SDS_P1;SDS_P2;PMS_P1;PMS_P2;Temp;Humidity;BMP_temperature;BMP_pressure;BME280_temperature;BME280_humidity;BME280_pressure;Samples;Min_cycle;Max_cycle;Signal;HPM_P1;HPM_P2
2022/02/24 00:02:09;;;;;;;7.90;4.40;;;5.90;99.90;;;;;;5009620;28;20041;-74
2022/02/24 00:04:35;;;;;;;5.90;3.92;;;5.90;99.90;;;;;;5010001;28;20041;-74
2022/02/24 00:07:01;;;;;;;17.05;5.03;;;5.90;99.90;;;;;;5009035;28;20030;-74
2022/02/24 00:09:28;;;;;;;7.93;5.50;;;5.90;99.90;;;;;;4992278;28;20120;-74
2022/02/24 00:11:54;;;;;;;10.20;4.40;;;5.90;99.90;;;;;;4991442;28;20049;-74
2022/02/24 00:14:21;;;;;;;8.63;5.18;;;5.90;99.90;;;;;;5009545;28;20038;-74
2022/02/24 00:16:47;;;;;;;9.00;4.97;;;5.90;99.90;;;;;;5008500;28;20124;-74
2022/02/24 00:19:13;;;;;;;6.75;4.75;;;5.90;99.90;;;;;;5009518;28;20030;-74
2022/02/24 00:21:39;;;;;;;6.70;4.75;;;5.80;99.90;;;;;;5009585;28;20467;-73
2022/02/24 00:24:07;;;;;;;7.05;4.88;;;5.90;99.90;;;;;;5008996;28;20034;-73
2022/02/24 00:26:34;;;;;;;13.73;5.45;;;5.80;99.90;;;;;;5009966;28;20469;-73
2022/02/24 00:29:00;;;;;;;10.75;4.43;;;5.70;99.90;;;;;;5009038;28;20030;-73
2022/02/24 00:31:26;;;;;;;14.65;5.90;;;5.50;99.90;;;;;;4991977;28;20503;-73
2022/02/24 00:33:52;;;;;;;12.02;4.88;;;5.40;99.90;;;;;;5018300;28;20056;-73
2022/02/24 00:36:19;;;;;;;10.18;5.65;;;5.40;99.90;;;;;;5015735;28;20030;-73
2022/02/24 00:38:45;;;;;;;8.18;5.50;;;5.50;99.90;;;;;;5009483;28;20033;-75
2022/02/24 00:41:11;;;;;;;8.27;5.63;;;5.60;99.90;;;;;;5009612;28;20470;-73
2022/02/24 00:43:37;;;;;;;10.57;6.45;;;5.60;99.90;;;;;;5009363;28;20041;-73
2022/02/24 00:46:04;;;;;;;13.15;6.25;;;5.50;99.90;;;;;;5008859;28;20268;-73
2022/02/24 00:48:30;;;;;;;9.00;6.65;;;5.60;99.90;;;;;;5009391;28;20046;-73
2022/02/24 00:50:56;;;;;;;20.27;6.97;;;5.60;99.90;;;;;;4990505;28;20053;-73
2022/02/24 00:53:23;;;;;;;12.38;6.47;;;5.60;99.90;;;;;;5009383;28;20387;-73
2022/02/24 00:55:49;;;;;;;6.30;5.70;;;5.60;99.90;;;;;;5008229;28;20034;-73
2022/02/24 00:58:15;;;;;;;17.98;6.55;;;5.60;99.90;;;;;;4991910;28;20041;-73
2022/02/24 01:00:41;;;;;;;13.07;6.32;;;5.50;99.90;;;;;;5009030;28;20041;-73
2022/02/24 01:03:08;;;;;;;9.40;6.05;;;5.50;99.90;;;;;;5008432;28;20749;-73
2022/02/24 01:05:35;;;;;;;6.45;4.65;;;5.50;99.90;;;;;;4991285;28;20390;-73
2022/02/24 01:08:01;;;;;;;5.43;4.70;;;5.50;99.90;;;;;;5008219;28;20041;-73
2022/02/24 01:10:27;;;;;;;7.72;5.63;;;5.50;99.90;;;;;;5008982;28;20034;-73
2022/02/24 01:12:53;;;;;;;4.57;4.18;;;5.50;99.90;;;;;;4991780;28;20054;-73
2022/02/24 01:15:19;;;;;;;9.15;5.30;;;5.50;99.90;;;;;;5008726;28;20046;-73
2022/02/24 01:17:46;;;;;;;10.63;5.07;;;5.50;99.90;;;;;;5059258;28;20046;-74
2022/02/24 01:20:13;;;;;;;4.55;3.75;;;5.50;99.90;;;;;;4990881;28;20038;-73
2022/02/24 01:22:39;;;;;;;7.80;5.38;;;5.50;99.90;;;;;;5010122;28;20046;-73
2022/02/24 01:25:06;;;;;;;8.20;5.55;;;5.50;99.90;;;;;;5007856;28;20666;-73
2022/02/24 01:27:32;;;;;;;10.05;4.35;;;5.50;99.90;;;;;;5008806;28;20394;-73
2022/02/24 01:29:58;;;;;;;5.47;4.72;;;5.50;99.90;;;;;;5007968;28;20041;-73
2022/02/24 01:32:25;;;;;;;4.75;4.25;;;5.50;99.90;;;;;;4991473;28;20038;-75
2022/02/24 01:34:58;;;;;;;5.75;4.70;;;5.50;99.90;;;;;;5007692;28;20045;-74
2022/02/24 01:37:27;;;;;;;10.05;4.65;;;5.60;99.90;;;;;;5008731;28;20038;-73
2022/02/24 01:39:54;;;;;;;6.75;5.05;;;5.70;99.90;;;;;;5007651;28;20378;-73
2022/02/24 01:42:20;;;;;;;6.40;4.90;;;5.70;99.90;;;;;;5008472;28;20041;-73
2022/02/24 01:44:47;;;;;;;7.72;5.13;;;5.70;99.90;;;;;;5008443;28;20515;-75
2022/02/24 01:47:13;;;;;;;7.60;5.50;;;5.70;99.90;;;;;;5008210;28;20034;-74
2022/02/24 01:49:40;;;;;;;7.80;6.20;;;5.70;99.90;;;;;;5012083;28;20038;-73
2022/02/24 01:52:09;;;;;;;8.23;6.68;;;5.70;99.90;;;;;;5010978;28;20045;-73
2022/02/24 01:54:35;;;;;;;7.72;5.28;;;5.70;99.90;;;;;;5011977;28;20038;-73
2022/02/24 01:57:03;;;;;;;8.07;6.43;;;5.70;99.90;;;;;;5011113;28;20053;-73
2022/02/24 01:59:29;;;;;;;10.27;6.68;;;5.80;99.90;;;;;;5011870;28;20455;-73
2022/02/24 02:01:56;;;;;;;7.80;5.70;;;5.80;99.90;;;;;;4994246;28;20045;-73
2022/02/24 02:04:23;;;;;;;8.55;6.80;;;5.80;99.90;;;;;;5011761;28;20030;-74
2022/02/24 02:06:49;;;;;;;9.75;6.95;;;5.80;99.90;;;;;;5011078;28;20034;-74
2022/02/24 02:09:17;;;;;;;8.10;5.68;;;5.70;99.90;;;;;;5011212;28;20034;-73
2022/02/24 02:11:43;;;;;;;8.27;6.22;;;5.80;99.90;;;;;;5011330;28;20042;-73
2022/02/24 02:14:11;;;;;;;7.15;6.25;;;5.80;99.90;;;;;;5010651;28;20034;-73
2022/02/24 02:16:46;;;;;;;8.65;6.70;;;5.80;99.90;;;;;;5010503;28;20061;-73
2022/02/24 02:19:12;;;;;;;10.55;6.72;;;5.90;99.90;;;;;;5011142;28;20790;-73
2022/02/24 02:21:39;;;;;;;15.63;6.65;;;5.80;99.90;;;;;;5011511;28;20034;-73
2022/02/24 02:24:05;;;;;;;12.35;6.22;;;5.80;99.90;;;;;;5010436;28;20034;-73
2022/02/24 02:26:32;;;;;;;7.40;6.40;;;5.80;99.90;;;;;;5011185;28;20034;-73
2022/02/24 02:28:59;;;;;;;12.05;7.15;;;5.80;99.90;;;;;;5010484;28;20046;-73
2022/02/24 02:31:27;;;;;;;11.70;6.40;;;5.90;99.90;;;;;;5011316;28;20092;-73
2022/02/24 02:34:07;;;;;;;14.80;7.00;;;5.90;99.90;;;;;;4993059;28;20042;-74
2022/02/24 02:36:35;;;;;;;12.48;7.75;;;5.80;99.90;;;;;;4993165;28;20053;-74
2022/02/24 02:39:03;;;;;;;11.70;7.28;;;5.80;99.90;;;;;;5010228;28;20030;-74
2022/02/24 02:41:30;;;;;;;9.23;6.85;;;5.80;99.90;;;;;;4993447;28;20042;-74
2022/02/24 02:43:57;;;;;;;11.02;7.07;;;5.80;99.90;;;;;;5010364;28;20026;-75
2022/02/24 02:46:23;;;;;;;9.15;6.90;;;5.80;99.90;;;;;;4993389;28;20046;-74
2022/02/24 02:48:50;;;;;;;8.95;6.57;;;5.90;99.90;;;;;;5011158;28;20034;-74
2022/02/24 02:51:16;;;;;;;9.80;7.25;;;5.80;99.90;;;;;;4992244;28;20049;-73
2022/02/24 02:53:43;;;;;;;9.27;6.82;;;5.90;99.90;;;;;;5010995;28;20096;-74
2022/02/24 02:56:09;;;;;;;10.25;7.18;;;5.90;99.90;;;;;;5009776;28;20049;-74
2022/02/24 02:58:35;;;;;;;8.57;6.70;;;5.90;99.90;;;;;;5010742;28;20037;-74
2022/02/24 03:01:03;;;;;;;9.00;7.15;;;5.80;99.90;;;;;;5009150;28;20462;-74
2022/02/24 03:03:29;;;;;;;18.48;7.18;;;5.90;99.90;;;;;;5010720;28;20455;-74
2022/02/24 03:05:56;;;;;;;18.40;7.95;;;5.90;99.90;;;;;;5009590;28;20421;-75
2022/02/24 03:08:23;;;;;;;11.05;6.93;;;5.90;99.90;;;;;;4992691;28;20379;-74
2022/02/24 03:10:50;;;;;;;13.63;10.70;;;6.00;99.90;;;;;;5010494;28;20026;-74
2022/02/24 03:13:18;;;;;;;12.07;9.35;;;5.90;99.90;;;;;;5009532;28;20038;-74
2022/02/24 03:15:44;;;;;;;20.35;12.25;;;5.90;99.90;;;;;;5010136;28;20049;-74
2022/02/24 03:18:11;;;;;;;33.75;19.63;;;5.90;99.90;;;;;;5009615;28;20045;-74
2022/02/24 03:20:37;;;;;;;98.63;76.53;;;6.00;99.90;;;;;;5010347;28;20030;-74
2022/02/24 03:23:08;;;;;;;57.53;40.72;;;5.90;99.90;;;;;;5009559;28;20033;-74
2022/02/24 03:25:34;;;;;;;69.18;51.70;;;6.00;99.90;;;;;;5010267;28;20034;-74
2022/02/24 03:28:01;;;;;;;18.75;14.60;;;6.00;99.90;;;;;;5009389;28;20030;-74
2022/02/24 03:30:29;;;;;;;72.50;47.33;;;6.10;99.90;;;;;;5010109;28;20034;-74
2022/02/24 03:32:56;;;;;;;8.60;7.80;;;6.10;99.90;;;;;;5009375;28;20045;-75
2022/02/24 03:35:22;;;;;;;39.15;23.08;;;6.10;99.90;;;;;;5009703;28;20030;-74
2022/02/24 03:37:49;;;;;;;30.17;21.10;;;6.10;99.90;;;;;;5010257;28;20026;-74
2022/02/24 03:40:16;;;;;;;109.50;75.65;;;6.20;99.90;;;;;;5009428;28;20285;-74
2022/02/24 03:42:45;;;;;;;16.67;12.45;;;6.20;99.90;;;;;;5009787;28;20057;-74
2022/02/24 03:45:12;;;;;;;146.23;98.72;;;6.20;99.90;;;;;;4991619;28;20025;-74
2022/02/24 03:47:38;;;;;;;105.28;78.50;;;6.20;99.90;;;;;;4992333;28;20054;-74
2022/02/24 03:50:06;;;;;;;169.02;132.55;;;6.20;99.90;;;;;;5009239;28;20025;-74
2022/02/24 03:52:32;;;;;;;368.42;279.38;;;6.20;99.90;;;;;;4991760;28;20053;-74
2022/02/24 03:54:59;;;;;;;412.33;309.48;;;6.20;99.90;;;;;;5009027;28;20026;-75
2022/02/24 03:57:25;;;;;;;70.85;49.78;;;6.20;99.90;;;;;;5009739;28;20036;-75
2022/02/24 03:59:51;;;;;;;36.15;24.73;;;6.20;99.90;;;;;;5010154;28;20038;-74
2022/02/24 04:02:17;;;;;;;115.25;82.63;;;6.20;99.90;;;;;;5009086;28;20099;-74
2022/02/24 04:04:43;;;;;;;34.05;29.17;;;6.20;99.90;;;;;;5009491;28;20030;-74
2022/02/24 04:07:10;;;;;;;229.48;185.85;;;6.20;99.90;;;;;;5008800;28;20034;-74
2022/02/24 04:09:37;;;;;;;133.82;95.38;;;6.20;99.90;;;;;;5009549;28;20037;-74
2022/02/24 04:12:04;;;;;;;60.08;41.40;;;6.20;99.90;;;;;;5007569;28;20037;-74
2022/02/24 04:14:30;;;;;;;14.05;7.70;;;6.20;99.90;;;;;;5009313;28;20034;-74
2022/02/24 04:16:59;;;;;;;16.92;13.77;;;6.20;99.90;;;;;;5009209;28;20037;-75
2022/02/24 04:19:26;;;;;;;30.35;25.95;;;6.20;99.90;;;;;;5009446;28;20041;-74
2022/02/24 04:21:52;;;;;;;81.22;61.42;;;6.10;99.90;;;;;;5009397;28;20034;-74
2022/02/24 04:24:18;;;;;;;14.02;11.02;;;6.20;99.90;;;;;;5008967;28;20029;-74
2022/02/24 04:26:44;;;;;;;7.93;7.03;;;6.10;99.90;;;;;;5009442;28;20034;-74
2022/02/24 04:29:11;;;;;;;296.08;230.48;;;6.10;99.90;;;;;;5008709;28;20034;-74
2022/02/24 04:31:37;;;;;;;24.13;16.67;;;6.20;99.90;;;;;;5009505;28;20038;-74
2022/02/24 04:34:03;;;;;;;9.45;7.65;;;6.20;99.90;;;;;;5008741;28;20056;-73
2022/02/24 04:36:30;;;;;;;20.60;9.80;;;6.20;99.90;;;;;;5009369;28;20037;-73
2022/02/24 04:38:56;;;;;;;45.20;39.47;;;6.20;99.90;;;;;;5009153;28;20037;-74
2022/02/24 04:41:22;;;;;;;42.42;30.90;;;6.20;99.90;;;;;;4991124;28;20049;-74
2022/02/24 04:43:48;;;;;;;27.75;25.00;;;6.20;99.90;;;;;;5009422;28;20030;-74
2022/02/24 04:46:15;;;;;;;33.67;29.85;;;6.20;99.90;;;;;;5008819;28;20034;-74
2022/02/24 04:48:41;;;;;;;19.33;15.05;;;6.20;99.90;;;;;;5009117;28;20041;-74
2022/02/24 04:51:08;;;;;;;14.68;13.20;;;6.30;99.90;;;;;;5018215;28;20033;-74
2022/02/24 04:53:34;;;;;;;25.70;23.23;;;6.30;99.90;;;;;;4998749;28;20053;-74
2022/02/24 04:56:00;;;;;;;12.27;10.98;;;6.30;99.90;;;;;;5009270;28;20033;-75
2022/02/24 04:58:26;;;;;;;10.15;7.60;;;6.30;99.90;;;;;;5008524;28;20056;-74
2022/02/24 05:00:53;;;;;;;14.95;12.82;;;6.30;99.90;;;;;;4991315;28;20065;-74
2022/02/24 05:03:20;;;;;;;13.55;10.00;;;6.40;99.90;;;;;;5008251;28;20113;-75
2022/02/24 05:05:46;;;;;;;10.75;7.60;;;6.30;99.90;;;;;;5008475;28;20057;-74
2022/02/24 05:08:12;;;;;;;7.72;6.97;;;6.30;99.90;;;;;;4991831;28;20041;-74
2022/02/24 05:10:38;;;;;;;9.68;7.18;;;6.40;99.90;;;;;;5008906;28;20030;-74
2022/02/24 05:13:04;;;;;;;13.60;7.28;;;6.40;99.90;;;;;;5008029;28;20402;-74
2022/02/24 05:15:31;;;;;;;15.10;9.30;;;6.50;99.90;;;;;;5008698;28;20077;-74
2022/02/24 05:17:57;;;;;;;8.23;7.35;;;6.40;99.90;;;;;;5008846;28;20363;-74
2022/02/24 05:20:23;;;;;;;8.90;7.95;;;6.50;99.90;;;;;;5008053;28;20502;-74
2022/02/24 05:22:49;;;;;;;8.05;7.35;;;6.50;99.90;;;;;;5010215;28;20038;-74
2022/02/24 05:25:16;;;;;;;9.07;7.47;;;6.50;99.90;;;;;;5010663;28;20026;-74
2022/02/24 05:27:43;;;;;;;7.25;5.97;;;6.50;99.90;;;;;;5012066;28;20038;-74
2022/02/24 05:30:13;;;;;;;7.47;6.70;;;6.60;99.90;;;;;;5011781;28;20049;-74
2022/02/24 05:32:40;;;;;;;11.20;7.82;;;6.60;99.90;;;;;;5011253;28;20072;-75
2022/02/24 05:35:07;;;;;;;9.50;6.95;;;6.60;99.90;;;;;;5010759;28;20459;-74
2022/02/24 05:37:34;;;;;;;6.90;6.25;;;6.60;99.90;;;;;;5012020;28;20038;-74
2022/02/24 05:40:02;;;;;;;8.57;6.88;;;6.60;99.90;;;;;;5012057;28;20037;-76
2022/02/24 05:42:29;;;;;;;8.18;6.28;;;6.60;99.90;;;;;;5011992;28;20478;-74
2022/02/24 05:44:55;;;;;;;9.02;6.88;;;6.60;99.90;;;;;;5011854;28;20034;-74
2022/02/24 05:47:22;;;;;;;8.63;7.15;;;6.70;99.90;;;;;;5011123;28;20038;-74
2022/02/24 05:49:48;;;;;;;10.27;6.50;;;6.70;99.90;;;;;;5011674;28;20033;-74
2022/02/24 05:52:14;;;;;;;14.93;7.10;;;6.60;99.90;;;;;;4994062;28;20053;-74
2022/02/24 05:54:40;;;;;;;6.57;5.80;;;6.70;99.90;;;;;;4993716;28;20041;-74
2022/02/24 05:57:06;;;;;;;9.85;6.38;;;6.70;99.90;;;;;;5011047;28;20034;-75
2022/02/24 05:59:33;;;;;;;8.10;5.53;;;6.80;99.90;;;;;;5012549;28;20034;-74
2022/02/24 06:01:59;;;;;;;8.95;5.53;;;6.70;99.90;;;;;;5011814;28;20041;-74
2022/02/24 06:04:26;;;;;;;6.13;5.63;;;6.80;99.90;;;;;;5010666;28;20033;-75
2022/02/24 06:06:52;;;;;;;8.57;6.82;;;6.80;99.90;;;;;;5011775;28;20036;-75
2022/02/24 06:09:19;;;;;;;9.02;6.20;;;6.80;99.90;;;;;;5009977;28;20038;-74
2022/02/24 06:11:46;;;;;;;12.98;6.38;;;6.80;99.90;;;;;;4993647;28;20391;-74
2022/02/24 06:14:13;;;;;;;7.43;5.82;;;6.80;99.90;;;;;;5010427;28;20026;-74
2022/02/24 06:16:39;;;;;;;20.10;18.25;;;6.90;99.90;;;;;;4993796;28;20057;-74
2022/02/24 06:19:05;;;;;;;25.50;22.92;;;6.90;99.90;;;;;;5010546;28;20524;-75
2022/02/24 06:21:31;;;;;;;63.08;44.92;;;6.90;99.90;;;;;;5011354;28;20033;-75
2022/02/24 06:23:58;;;;;;;14.48;13.13;;;6.80;99.90;;;;;;4995250;28;20038;-74
2022/02/24 06:26:24;;;;;;;14.48;12.98;;;6.90;99.90;;;;;;5010811;28;20030;-75
2022/02/24 06:28:51;;;;;;;56.58;51.20;;;6.80;99.90;;;;;;5011606;28;20395;-74
2022/02/24 06:31:18;;;;;;;10.95;9.82;;;6.80;99.90;;;;;;4992726;28;20381;-75
2022/02/24 06:33:44;;;;;;;8.68;7.88;;;6.80;99.90;;;;;;4992896;28;20398;-75
2022/02/24 06:36:10;;;;;;;13.57;11.88;;;6.90;99.90;;;;;;5009759;28;20042;-75
2022/02/24 06:38:37;;;;;;;9.98;6.68;;;6.90;99.90;;;;;;5010860;28;20045;-74
2022/02/24 06:41:03;;;;;;;7.85;7.05;;;6.90;99.90;;;;;;5011460;28;20030;-75
2022/02/24 06:43:29;;;;;;;6.57;5.80;;;7.00;99.90;;;;;;5010738;28;20037;-75
2022/02/24 06:45:55;;;;;;;14.45;6.60;;;7.00;99.90;;;;;;4993151;28;20069;-74
2022/02/24 06:48:24;;;;;;;6.78;5.57;;;7.00;99.90;;;;;;4993820;28;20046;-75
2022/02/24 06:50:50;;;;;;;8.77;6.28;;;7.00;99.90;;;;;;4993494;28;20057;-75
2022/02/24 06:53:17;;;;;;;8.90;5.10;;;7.00;99.90;;;;;;5010103;28;20049;-75
2022/02/24 06:55:43;;;;;;;4.93;4.38;;;7.10;99.90;;;;;;5010903;28;20038;-75
2022/02/24 06:58:09;;;;;;;12.38;4.38;;;7.10;99.90;;;;;;5010057;28;20030;-75
2022/02/24 07:00:35;;;;;;;5.00;4.60;;;7.20;99.90;;;;;;5010035;28;20050;-74
2022/02/24 07:03:01;;;;;;;5.07;4.40;;;7.20;99.90;;;;;;4977657;28;20398;-74
2022/02/24 07:05:28;;;;;;;6.30;4.97;;;7.10;99.90;;;;;;4992570;28;20477;-74
2022/02/24 07:07:54;;;;;;;6.25;4.40;;;7.20;99.90;;;;;;5010334;28;20052;-74
2022/02/24 07:10:20;;;;;;;5.10;4.07;;;7.20;99.90;;;;;;5009964;28;20030;-74
2022/02/24 07:12:46;;;;;;;7.43;3.72;;;7.30;99.90;;;;;;5010013;28;20475;-74
2022/02/24 07:15:14;;;;;;;7.53;4.68;;;7.30;99.90;;;;;;5009573;28;20061;-74
2022/02/24 07:17:45;;;;;;;5.15;3.88;;;7.40;99.90;;;;;;5010328;28;20037;-75
2022/02/24 07:20:14;;;;;;;8.02;5.82;;;7.40;99.90;;;;;;5009792;28;20034;-75
2022/02/24 07:22:40;;;;;;;6.10;5.53;;;7.40;99.90;;;;;;5010572;28;20042;-74
2022/02/24 07:25:07;;;;;;;8.30;5.65;;;7.50;99.90;;;;;;5010405;28;20037;-76
2022/02/24 07:27:34;;;;;;;8.23;7.53;;;7.50;99.90;;;;;;4992269;28;20038;-75
2022/02/24 07:30:05;;;;;;;9.88;5.75;;;7.60;99.90;;;;;;5010338;28;20037;-74
2022/02/24 07:32:32;;;;;;;;;;;7.70;99.90;;;;;;4992785;28;20483;-74
2022/02/24 07:34:59;;;;;;;7.97;6.38;;;7.80;99.60;;;;;;4992796;28;19910;-75
2022/02/24 07:37:25;;;;;;;7.10;4.47;;;7.90;99.30;;;;;;5009412;28;20457;-75
2022/02/24 07:39:52;;;;;;;5.82;4.35;;;7.90;98.60;;;;;;5010153;28;20030;-74
2022/02/24 07:42:18;;;;;;;6.50;4.50;;;7.90;98.00;;;;;;5009855;28;20041;-74
2022/02/24 07:44:45;;;;;;;12.25;7.57;;;8.00;97.30;;;;;;4992535;28;20112;-75
2022/02/24 07:47:12;;;;;;;18.95;10.32;;;8.00;97.30;;;;;;4991433;28;20046;-75
2022/02/24 07:49:39;;;;;;;6.85;4.90;;;8.10;97.00;;;;;;5010294;28;20049;-77
2022/02/24 07:52:07;;;;;;;8.10;5.18;;;8.10;96.70;;;;;;5010240;28;20368;-77
2022/02/24 07:54:33;;;;;;;5.70;4.35;;;8.00;96.60;;;;;;5009546;28;20044;-76
2022/02/24 07:56:59;;;;;;;7.35;5.05;;;8.10;96.60;;;;;;5011105;28;20045;-76
2022/02/24 07:59:26;;;;;;;14.85;10.00;;;8.10;96.40;;;;;;5011983;28;20057;-76
2022/02/24 08:01:52;;;;;;;6.32;5.07;;;8.10;96.20;;;;;;4993548;28;20049;-76
2022/02/24 08:04:18;;;;;;;8.93;4.38;;;8.10;95.80;;;;;;5010001;28;20034;-76
2022/02/24 08:06:45;;;;;;;6.32;5.00;;;8.20;95.90;;;;;;4993881;28;20120;-76
2022/02/24 08:09:11;;;;;;;13.90;10.07;;;8.30;95.50;;;;;;5009656;28;20039;-77
2022/02/24 08:11:37;;;;;;;6.57;4.60;;;8.30;95.40;;;;;;5009875;28;20029;-76
2022/02/24 08:14:05;;;;;;;7.63;5.03;;;8.20;95.00;;;;;;5009816;28;20038;-76
2022/02/24 08:16:31;;;;;;;8.35;4.85;;;8.20;95.40;;;;;;5009646;28;20058;-76
2022/02/24 08:19:00;;;;;;;4.72;4.13;;;8.20;95.30;;;;;;5010198;28;20042;-76
2022/02/24 08:21:27;;;;;;;7.78;4.13;;;8.30;95.30;;;;;;5009546;28;20041;-76
2022/02/24 08:23:53;;;;;;;5.28;4.10;;;8.30;94.70;;;;;;5010117;28;20026;-76
2022/02/24 08:26:20;;;;;;;6.45;5.07;;;8.40;94.60;;;;;;5009183;28;20485;-77
2022/02/24 08:28:48;;;;;;;6.32;4.80;;;8.50;94.30;;;;;;5010038;28;20045;-77
2022/02/24 08:31:14;;;;;;;6.72;3.83;;;8.60;94.00;;;;;;4991439;28;20042;-77
2022/02/24 08:33:41;;;;;;;5.47;4.88;;;8.70;93.30;;;;;;5009785;28;20042;-77
2022/02/24 08:36:07;;;;;;;10.52;7.40;;;8.70;93.00;;;;;;5009430;28;20037;-77
2022/02/24 08:38:33;;;;;;;5.32;4.22;;;8.80;92.70;;;;;;5008877;28;20030;-74
2022/02/24 08:40:59;;;;;;;9.40;5.78;;;8.90;92.40;;;;;;5009781;28;20382;-77
2022/02/24 08:43:25;;;;;;;5.78;3.47;;;9.10;91.80;;;;;;5009060;28;20398;-76
2022/02/24 08:45:52;;;;;;;6.32;4.80;;;9.20;90.80;;;;;;5009375;28;20037;-79
2022/02/24 08:48:18;;;;;;;8.50;3.70;;;9.20;91.50;;;;;;5008840;28;20034;-78
2022/02/24 08:50:44;;;;;;;5.00;4.53;;;9.40;90.60;;;;;;5009277;28;20037;-75
2022/02/24 08:53:11;;;;;;;6.60;3.72;;;9.40;90.50;;;;;;5009492;28;20394;-76
2022/02/24 08:55:37;;;;;;;7.32;4.97;;;9.30;90.70;;;;;;5009266;28;20026;-76
2022/02/24 08:58:05;;;;;;;5.40;4.43;;;9.30;91.00;;;;;;4992852;28;20053;-77
2022/02/24 09:00:32;;;;;;;5.50;4.47;;;9.30;90.40;;;;;;4996205;28;20382;-76
2022/02/24 09:02:58;;;;;;;9.57;3.90;;;9.40;90.40;;;;;;5013115;28;20045;-77
2022/02/24 09:05:25;;;;;;;9.63;4.28;;;9.30;90.30;;;;;;5012286;28;20033;-74
2022/02/24 09:07:51;;;;;;;7.75;5.22;;;9.10;90.50;;;;;;5013163;28;20026;-76
2022/02/24 09:10:17;;;;;;;6.20;3.90;;;9.10;90.80;;;;;;5012040;28;20034;-75
2022/02/24 09:12:43;;;;;;;8.45;6.82;;;9.20;90.60;;;;;;5012910;28;20042;-76
2022/02/24 09:15:10;;;;;;;6.57;4.03;;;9.40;90.20;;;;;;5019009;28;20053;-74
2022/02/24 09:17:36;;;;;;;5.97;4.63;;;9.40;88.90;;;;;;5018173;28;20034;-76
2022/02/24 09:20:03;;;;;;;8.07;4.90;;;9.40;89.90;;;;;;5013622;28;20359;-75
2022/02/24 09:22:29;;;;;;;4.80;3.72;;;9.50;88.60;;;;;;4994506;28;20046;-76
2022/02/24 09:24:55;;;;;;;7.70;4.03;;;9.60;88.80;;;;;;5012954;28;20034;-76
2022/02/24 09:27:24;;;;;;;4.85;3.08;;;9.70;87.40;;;;;;5012235;28;20037;-76
2022/02/24 09:29:50;;;;;;;5.65;3.65;;;9.70;86.70;;;;;;5012776;28;20038;-78
2022/02/24 09:32:16;;;;;;;4.22;3.80;;;9.80;87.00;;;;;;5010998;28;20050;-78
2022/02/24 09:34:43;;;;;;;8.13;4.45;;;9.80;86.30;;;;;;4995322;28;20112;-75
2022/02/24 09:37:09;;;;;;;5.72;4.43;;;9.80;85.50;;;;;;5012062;28;20038;-78
2022/02/24 09:39:35;;;;;;;5.13;3.47;;;9.80;86.10;;;;;;5011739;28;20030;-79
2022/02/24 09:42:02;;;;;;;4.93;3.15;;;9.90;85.20;;;;;;5012352;28;20030;-78
2022/02/24 09:44:28;;;;;;;7.45;3.65;;;10.10;84.50;;;;;;5011849;28;20030;-78
2022/02/24 09:46:55;;;;;;;6.28;3.70;;;10.30;83.90;;;;;;4994342;28;20042;-79
2022/02/24 09:49:25;;;;;;;4.53;3.35;;;10.70;82.10;;;;;;5011565;28;20030;-78
2022/02/24 09:51:51;;;;;;;5.07;3.22;;;11.00;80.20;;;;;;5011951;28;20060;-77
2022/02/24 09:54:18;;;;;;;6.28;3.05;;;11.40;77.80;;;;;;5011311;28;20052;-79
2022/02/24 09:56:45;;;;;;;11.95;3.22;;;11.50;76.20;;;;;;5012159;28;20351;-79
2022/02/24 09:59:13;;;;;;;4.03;2.75;;;11.70;75.80;;;;;;5012163;28;20050;-77
2022/02/24 10:01:41;;;;;;;10.23;3.30;;;11.60;75.60;;;;;;5012798;28;20026;-79
2022/02/24 10:04:09;;;;;;;3.63;2.28;;;11.60;75.80;;;;;;5011962;28;20048;-78
2022/02/24 10:06:44;;;;;;;2.92;2.47;;;11.60;75.00;;;;;;5011199;28;20041;-80
2022/02/24 10:09:18;;;;;;;3.28;2.50;;;11.60;74.80;;;;;;5012201;28;20458;-79
2022/02/24 10:11:46;;;;;;;9.18;3.03;;;11.80;74.70;;;;;;5011866;28;20498;-79
2022/02/24 10:14:20;;;;;;;7.25;4.00;;;11.70;73.90;;;;;;5011608;28;20068;-76
2022/02/24 10:16:54;;;;;;;3.78;2.60;;;11.80;73.30;;;;;;5012162;28;20084;-75
2022/02/24 10:19:37;;;;;;;4.90;3.15;;;11.70;73.60;;;;;;5011024;28;20045;-75
2022/02/24 10:22:30;;;;;;;3.10;2.67;;;11.70;73.30;;;;;;5011889;28;20462;-76
2022/02/24 10:25:04;;;;;;;6.38;3.00;;;11.60;74.00;;;;;;5011409;28;20034;-79
2022/02/24 10:27:34;;;;;;;5.43;3.25;;;11.40;74.20;;;;;;5010910;28;20045;-76
2022/02/24 10:30:14;;;;;;;4.18;2.38;;;11.70;73.60;;;;;;5011470;28;20371;-77
2022/02/24 10:32:49;;;;;;;5.72;2.45;;;11.90;72.50;;;;;;5010809;28;20037;-75
2022/02/24 10:35:40;;;;;;;2.75;2.20;;;11.70;73.00;;;;;;5011351;28;20056;-75
2022/02/24 10:38:08;;;;;;;;;;;11.40;73.60;;;;;;5011806;28;20108;-79
2022/02/24 10:40:36;;;;;;;5.20;2.35;;;11.40;74.30;;;;;;5010928;28;20281;-79
2022/02/24 10:43:08;;;;;;;4.50;3.03;;;11.50;73.90;;;;;;5011729;28;20041;-81
2022/02/24 10:45:35;;;;;;;5.25;2.67;;;11.40;73.60;;;;;;5010731;28;20382;-79
2022/02/24 10:48:04;;;;;;;4.10;2.55;;;11.50;74.20;;;;;;5010882;28;20057;-79
2022/02/24 10:50:56;;;;;;;4.88;2.70;;;11.60;73.20;;;;;;5010522;28;20026;-78
2022/02/24 10:53:33;;;;;;;2.88;2.15;;;11.50;73.30;;;;;;5010702;28;20065;-76
2022/02/24 10:56:03;;;;;;;3.50;2.75;;;11.50;73.60;;;;;;5011149;28;20157;-79
2022/02/24 10:58:34;;;;;;;3.70;2.22;;;11.60;73.50;;;;;;5010846;28;20435;-79
2022/02/24 11:01:02;;;;;;;;;;;11.70;73.80;;;;;;5011304;28;20034;-76
2022/02/24 11:03:29;;;;;;;2.45;2.25;;;11.80;72.90;;;;;;5010331;28;19910;-78
2022/02/24 11:05:58;;;;;;;2.65;1.95;;;11.90;72.70;;;;;;5010876;28;20038;-79
2022/02/24 11:08:27;;;;;;;4.57;2.53;;;11.90;73.10;;;;;;5010470;28;20045;-76
2022/02/24 11:10:55;;;;;;;5.13;2.90;;;12.10;72.80;;;;;;5011091;28;20042;-78
2022/02/24 11:13:23;;;;;;;2.35;1.70;;;12.20;71.70;;;;;;4992714;28;20398;-78
2022/02/24 11:15:53;;;;;;;4.15;1.90;;;12.30;71.00;;;;;;5011142;28;20045;-75
2022/02/24 11:18:21;;;;;;;3.35;2.30;;;12.50;70.80;;;;;;4977045;28;20049;-78
2022/02/24 11:20:48;;;;;;;5.32;2.28;;;12.60;70.50;;;;;;5010278;28;20458;-76
2022/02/24 11:23:15;;;;;;;3.05;2.42;;;12.50;70.60;;;;;;5010632;28;20034;-76
2022/02/24 11:26:22;;;;;;;4.93;2.53;;;12.50;71.20;;;;;;4992831;28;20042;-78
2022/02/24 11:28:57;;;;;;;4.85;2.38;;;12.70;71.20;;;;;;4983571;28;20050;-77
2022/02/24 11:31:27;;;;;;;4.30;2.80;;;12.70;69.10;;;;;;5009900;28;20030;-78
2022/02/24 11:33:54;;;;;;;4.70;2.63;;;12.70;69.80;;;;;;5010108;28;20568;-78
2022/02/24 11:36:22;;;;;;;2.55;1.88;;;12.80;69.50;;;;;;5010404;28;20048;-77
2022/02/24 11:39:12;;;;;;;5.53;2.47;;;13.00;68.60;;;;;;5010446;28;20029;-77
2022/02/24 11:41:57;;;;;;;3.78;1.65;;;12.80;68.80;;;;;;5010189;28;20038;-78
2022/02/24 11:44:40;;;;;;;2.25;1.10;;;12.70;67.80;;;;;;5009763;28;20037;-76
2022/02/24 11:47:11;;;;;;;3.58;1.88;;;12.60;68.30;;;;;;5010440;28;20057;-77
2022/02/24 11:49:53;;;;;;;4.43;2.25;;;12.70;68.00;;;;;;4991964;28;20049;-78
2022/02/24 11:52:20;;;;;;;2.67;1.73;;;12.90;67.10;;;;;;5010168;28;20029;-76
2022/02/24 11:54:47;;;;;;;2.92;1.17;;;12.70;67.50;;;;;;4992234;28;20402;-76
2022/02/24 11:57:29;;;;;;;4.63;1.50;;;12.90;67.00;;;;;;5010423;28;20026;-75
2022/02/24 12:00:02;;;;;;;3.25;1.73;;;13.00;67.30;;;;;;4992997;28;20034;-78
2022/02/24 12:02:45;;;;;;;2.63;1.80;;;13.10;66.10;;;;;;5017720;28;20053;-78
2022/02/24 12:05:19;;;;;;;6.13;2.03;;;13.00;66.30;;;;;;5010428;28;20034;-78
2022/02/24 12:08:02;;;;;;;2.67;1.67;;;12.80;66.40;;;;;;4992229;28;20037;-78
2022/02/24 12:10:43;;;;;;;4.85;1.90;;;12.70;66.50;;;;;;4991483;28;20125;-77
2022/02/24 12:13:30;;;;;;;4.45;1.73;;;12.70;67.00;;;;;;5009912;28;20038;-76
2022/02/24 12:16:18;;;;;;;2.75;2.00;;;12.70;67.00;;;;;;5009542;28;20050;-76
2022/02/24 12:18:46;;;;;;;4.25;1.83;;;12.60;67.10;;;;;;5009246;28;20049;-77
2022/02/24 12:21:31;;;;;;;3.42;2.15;;;12.60;67.20;;;;;;5009676;28;20497;-77
2022/02/24 12:24:00;;;;;;;3.38;1.95;;;12.60;67.50;;;;;;5009802;28;20034;-76
2022/02/24 12:26:39;;;;;;;3.40;1.33;;;12.60;67.40;;;;;;5009484;28;20030;-76
2022/02/24 12:29:32;;;;;;;3.78;1.83;;;12.70;67.60;;;;;;5009943;28;20370;-77
2022/02/24 12:32:00;;;;;;;3.58;2.20;;;12.90;67.10;;;;;;4976282;28;20510;-77
2022/02/24 12:34:28;;;;;;;4.28;1.85;;;13.10;66.20;;;;;;5008816;28;20041;-76
2022/02/24 12:37:10;;;;;;;4.50;2.00;;;13.10;65.60;;;;;;5009807;28;20034;-77
2022/02/24 12:39:37;;;;;;;4.05;2.08;;;13.20;65.70;;;;;;5009255;28;20025;-77
2022/02/24 12:42:05;;;;;;;2.90;1.63;;;13.20;65.40;;;;;;5009800;28;20029;-77
2022/02/24 12:44:32;;;;;;;3.60;1.50;;;13.20;65.30;;;;;;5008891;28;20037;-75
2022/02/24 12:46:59;;;;;;;2.38;1.45;;;13.20;64.50;;;;;;5009519;28;20034;-76
2022/02/24 12:49:25;;;;;;;8.10;2.03;;;13.00;65.20;;;;;;4991617;28;20026;-75
2022/02/24 12:51:58;;;;;;;9.95;1.83;;;13.00;65.30;;;;;;5009443;28;20034;-77
2022/02/24 12:54:26;;;;;;;2.60;1.65;;;12.90;65.30;;;;;;5009158;28;20034;-75
2022/02/24 12:57:00;;;;;;;2.55;1.52;;;12.80;65.20;;;;;;5009657;28;20470;-77